Tuesday, January 22, 2019, 4:04 PM EST
Back to Local

KDKK, Chautauqua County/dunkirk

Location: Dunkirk, NY, United States Lat: 42.5
Local Time: 4:04 PM EST (21:04 GMT) Lon: -79.283
Time Zone: US/Eastern Elev: 692 ft

Show me the last for .
Show Coded

Time T Td Feel RH Dir Speed Gust Alt SLP Vis Weather Sky Remarks
2019-01-22 14:53 28 8 - 42 - Calm - 30.36 30.40 10 BKN085 None
2019-01-22 13:53 25 10 16 52 360° 8 - 30.39 30.44 10 FEW120 None
2019-01-22 12:53 22 10 13 59 350° 7 - 30.43 30.48 10 OVC090 6-hr Min Temp (1pm): 3.0°F
6-hr Max Temp (1pm): 21.9°F
2019-01-22 11:53 18 8 13 64 10° 3 - 30.47 30.52 10 OVC090 Pressure falling rapidly
2019-01-22 10:53 16 7 10 66 330° 3 - 30.54 30.58 10 SCT110 None
2019-01-22 09:53 12 7 - 79 - Calm - 30.56 30.60 10 CLR None
2019-01-22 08:53 8 3 1 79 220° 3 - 30.58 30.63 10 CLR None
2019-01-22 07:53 6 2 - 82 - Calm - 30.58 30.63 10 CLR None
2019-01-22 07:07 6 3 -4 86 110° 6 - 30.58 - 10 SCT018 None
2019-01-22 06:53 7 3 -6 83 100° 8 - 30.58 30.63 10 BKN018 6-hr Min Temp (7am): -6.0°F
6-hr Max Temp (7am): 7.0°F
2019-01-22 05:53 6 2 -3 82 80° 5 - 30.60 30.65 9 OVC020 None
2019-01-22 04:53 3 0 - 86 - Calm - 30.59 30.64 10 OVC021 None
2019-01-22 03:53 6 2 -1 82 130° 3 - 30.58 30.63 10 OVC022 None
2019-01-22 02:53 2 -1 -8 87 180° 5 - 30.61 30.66 10 OVC024 None
2019-01-22 01:53 -2 -6 - 82 - Calm - 30.59 30.64 10 BKN022 None
2019-01-22 01:49 -2 -6 - 84 - Calm - 30.59 - 10 BKN022 None
2019-01-22 00:53 -4 -7 -12 86 210° 3 - 30.57 30.63 10 FEW025 6-hr Min Temp (1am): -4.0°F
6-hr Max Temp (1am): 12.9°F
2019-01-21 23:53 11 3 3 69 310° 5 - 30.55 30.60 10 CLR 24-hr Min Temp (12am): -0.0°F
24-hr Max Temp (12am): 12.9°F
2019-01-21 23:35 11 2 3 66 330° 5 - 30.55 - 10 SCT025 None
2019-01-21 22:53 12 2 3 63 320° 6 - 30.55 30.60 10 BKN027 None
2019-01-21 21:53 13 3 2 63 310° 8 - 30.56 30.61 10 BKN027 None
2019-01-21 20:53 13 3 2 63 310° 8 - 30.55 30.60 10 BKN026 None
2019-01-21 20:46 13 3 1 63 310° 9 - 30.55 - 10 BKN028 None
2019-01-21 19:53 13 2 -2 60 310° 13 - 30.53 30.58 10 SCT029 None
2019-01-21 18:53 13 1 0 58 310° 10 - 30.51 30.56 10 FEW030 6-hr Min Temp (7pm): 6.1°F
6-hr Max Temp (7pm): 12.9°F
2019-01-21 17:53 13 2 -5 60 300° 12 21 30.50 30.55 10 SCT028 None
2019-01-21 17:23 12 1 -7 60 310° 14 21 30.49 - 10 BKN029 None
2019-01-21 17:04 12 1 -7 60 300° 12 23 30.49 - 10 SCT027 None
2019-01-21 16:53 11 1 -8 63 300° 10 22 30.49 30.54 10 BKN025 None

Support USWX by starting your Amazon purchase here.